Terminal Aerodrome Forecast
Issued by NWS Bismarck, ND

Home | Current Version | Previous Version | Text Only | Print | Product List | Glossary Off
Versions: 1 2 3 4 5 6 7 8 9 10 11 12 13 14 15

000
FTUS43 KBIS 162300
TAFISN
TAF
KISN 162321Z 1700/1724 31006KT P6SM SKC
     FM170200 26004KT P6SM SKC
     FM170400 25004KT P6SM FEW200 SCT300
     FM171500 29007KT P6SM SKC
     FM171800 36006KT P6SM SKC
     FM172100 04006KT P6SM SKC=

USA.gov is the U.S. government's official web portal to all federal, state and local government web resources and services.